sensor_id;sensor_type;location;lat;lon;timestamp;pressure;altitude;pressure_sealevel;temperature;humidity
64189;BME280;50493;50.970;10.082;2023-09-12T00:01:15;98964.53;;;22.76;48.96
64189;BME280;50493;50.970;10.082;2023-09-12T00:03:41;98970.38;;;22.70;49.20
64189;BME280;50493;50.970;10.082;2023-09-12T00:06:06;98959.47;;;22.73;48.89
64189;BME280;50493;50.970;10.082;2023-09-12T00:08:32;98968.66;;;22.69;49.43
64189;BME280;50493;50.970;10.082;2023-09-12T00:11:02;98961.25;;;22.61;49.04
64189;BME280;50493;50.970;10.082;2023-09-12T00:13:30;98953.91;;;22.53;49.42
64189;BME280;50493;50.970;10.082;2023-09-12T00:15:55;98957.66;;;22.51;49.45
64189;BME280;50493;50.970;10.082;2023-09-12T00:18:21;98952.19;;;22.52;49.44
64189;BME280;50493;50.970;10.082;2023-09-12T00:20:46;98956.53;;;22.42;49.70
64189;BME280;50493;50.970;10.082;2023-09-12T00:23:12;98950.72;;;22.37;49.40
64189;BME280;50493;50.970;10.082;2023-09-12T00:25:37;98951.06;;;22.32;49.74
64189;BME280;50493;50.970;10.082;2023-09-12T00:28:03;98950.34;;;22.30;49.92
64189;BME280;50493;50.970;10.082;2023-09-12T00:30:30;98940.88;;;22.26;49.49
64189;BME280;50493;50.970;10.082;2023-09-12T00:32:55;98941.25;;;22.21;49.78
64189;BME280;50493;50.970;10.082;2023-09-12T00:35:21;98948.72;;;22.16;50.20
64189;BME280;50493;50.970;10.082;2023-09-12T00:37:46;98946.06;;;22.16;50.00
64189;BME280;50493;50.970;10.082;2023-09-12T00:40:12;98940.53;;;22.19;49.62
64189;BME280;50493;50.970;10.082;2023-09-12T00:42:37;98945.47;;;22.13;49.49
64189;BME280;50493;50.970;10.082;2023-09-12T00:45:03;98939.53;;;22.09;49.72
64189;BME280;50493;50.970;10.082;2023-09-12T00:47:30;98945.09;;;22.06;50.28
64189;BME280;50493;50.970;10.082;2023-09-12T00:49:56;98942.53;;;22.04;50.03
64189;BME280;50493;50.970;10.082;2023-09-12T00:52:24;98938.31;;;22.02;50.01
64189;BME280;50493;50.970;10.082;2023-09-12T00:54:50;98941.78;;;21.91;50.37
64189;BME280;50493;50.970;10.082;2023-09-12T00:57:16;98942.25;;;21.85;50.31
64189;BME280;50493;50.970;10.082;2023-09-12T00:59:42;98934.50;;;21.82;50.07
64189;BME280;50493;50.970;10.082;2023-09-12T01:02:08;98944.53;;;21.78;50.60
64189;BME280;50493;50.970;10.082;2023-09-12T01:04:36;98953.13;;;21.82;50.03
64189;BME280;50493;50.970;10.082;2023-09-12T01:07:03;98950.34;;;21.83;50.08
64189;BME280;50493;50.970;10.082;2023-09-12T01:09:29;98953.97;;;21.82;49.92
64189;BME280;50493;50.970;10.082;2023-09-12T01:11:55;98960.22;;;21.70;50.04
64189;BME280;50493;50.970;10.082;2023-09-12T01:14:21;98951.72;;;21.65;50.42
64189;BME280;50493;50.970;10.082;2023-09-12T01:16:46;98953.66;;;21.63;50.18
64189;BME280;50493;50.970;10.082;2023-09-12T01:19:12;98953.97;;;21.58;50.55
64189;BME280;50493;50.970;10.082;2023-09-12T01:22:21;98947.19;;;21.54;50.46
64189;BME280;50493;50.970;10.082;2023-09-12T01:25:08;98941.59;;;21.46;50.56
64189;BME280;50493;50.970;10.082;2023-09-12T01:27:37;98943.13;;;21.37;50.80
64189;BME280;50493;50.970;10.082;2023-09-12T01:30:05;98946.97;;;21.33;50.85
64189;BME280;50493;50.970;10.082;2023-09-12T01:32:32;98943.31;;;21.34;50.48
64189;BME280;50493;50.970;10.082;2023-09-12T01:34:58;98939.72;;;21.35;50.50
64189;BME280;50493;50.970;10.082;2023-09-12T01:37:24;98934.63;;;21.32;50.50
64189;BME280;50493;50.970;10.082;2023-09-12T01:39:49;98937.00;;;21.24;50.73
64189;BME280;50493;50.970;10.082;2023-09-12T01:42:18;98937.00;;;21.24;50.66
64189;BME280;50493;50.970;10.082;2023-09-12T01:44:46;98935.31;;;21.23;50.57
64189;BME280;50493;50.970;10.082;2023-09-12T01:47:14;98927.84;;;21.28;50.71
64189;BME280;50493;50.970;10.082;2023-09-12T01:49:44;98922.84;;;21.23;50.44
64189;BME280;50493;50.970;10.082;2023-09-12T01:52:11;98931.09;;;21.07;50.74
64189;BME280;50493;50.970;10.082;2023-09-12T01:54:37;98928.16;;;20.99;51.14
64189;BME280;50493;50.970;10.082;2023-09-12T01:57:04;98931.66;;;20.99;51.07
64189;BME280;50493;50.970;10.082;2023-09-12T01:59:29;98933.91;;;20.93;51.08
64189;BME280;50493;50.970;10.082;2023-09-12T02:01:56;98925.94;;;20.93;51.00
64189;BME280;50493;50.970;10.082;2023-09-12T02:04:21;98926.34;;;20.86;51.16
64189;BME280;50493;50.970;10.082;2023-09-12T02:06:47;98928.06;;;20.87;51.15
64189;BME280;50493;50.970;10.082;2023-09-12T02:09:12;98932.63;;;20.85;50.79
64189;BME280;50493;50.970;10.082;2023-09-12T02:11:38;98917.63;;;20.97;50.59
64189;BME280;50493;50.970;10.082;2023-09-12T02:14:03;98920.53;;;20.94;50.86
64189;BME280;50493;50.970;10.082;2023-09-12T02:16:29;98927.53;;;20.82;51.03
64189;BME280;50493;50.970;10.082;2023-09-12T02:18:56;98930.94;;;20.84;50.79
64189;BME280;50493;50.970;10.082;2023-09-12T02:21:21;98928.72;;;20.91;50.57
64189;BME280;50493;50.970;10.082;2023-09-12T02:23:46;98934.66;;;20.82;50.80
64189;BME280;50493;50.970;10.082;2023-09-12T02:26:12;98942.00;;;20.78;50.73
64189;BME280;50493;50.970;10.082;2023-09-12T02:28:37;98934.03;;;20.78;50.82
64189;BME280;50493;50.970;10.082;2023-09-12T02:31:03;98931.38;;;20.78;50.44
64189;BME280;50493;50.970;10.082;2023-09-12T02:33:28;98927.75;;;20.79;50.45
64189;BME280;50493;50.970;10.082;2023-09-12T02:35:55;98929.88;;;20.74;50.73
64189;BME280;50493;50.970;10.082;2023-09-12T02:38:20;98933.53;;;20.60;51.15
64189;BME280;50493;50.970;10.082;2023-09-12T02:40:45;98937.66;;;20.51;51.08
64189;BME280;50493;50.970;10.082;2023-09-12T02:43:11;98940.13;;;20.54;50.93
64189;BME280;50493;50.970;10.082;2023-09-12T02:45:36;98938.94;;;20.59;50.83
64189;BME280;50493;50.970;10.082;2023-09-12T02:48:02;98933.00;;;20.55;50.64
64189;BME280;50493;50.970;10.082;2023-09-12T02:50:27;98931.63;;;20.49;50.90
64189;BME280;50493;50.970;10.082;2023-09-12T02:52:54;98923.97;;;20.45;50.91
64189;BME280;50493;50.970;10.082;2023-09-12T02:55:19;98923.13;;;20.44;50.86
64189;BME280;50493;50.970;10.082;2023-09-12T02:57:45;98932.69;;;20.34;50.97
64189;BME280;50493;50.970;10.082;2023-09-12T03:00:11;98929.53;;;20.29;51.24
64189;BME280;50493;50.970;10.082;2023-09-12T03:02:36;98927.94;;;20.26;51.05
64189;BME280;50493;50.970;10.082;2023-09-12T03:05:02;98930.78;;;20.23;51.21
64189;BME280;50493;50.970;10.082;2023-09-12T03:07:29;98939.06;;;20.18;51.33
64189;BME280;50493;50.970;10.082;2023-09-12T03:09:55;98945.66;;;20.13;51.34
64189;BME280;50493;50.970;10.082;2023-09-12T03:12:21;98939.28;;;20.15;51.23
64189;BME280;50493;50.970;10.082;2023-09-12T03:14:46;98945.66;;;20.13;51.23
64189;BME280;50493;50.970;10.082;2023-09-12T03:17:11;98939.28;;;20.15;50.98
64189;BME280;50493;50.970;10.082;2023-09-12T03:19:37;98928.78;;;20.14;50.94
64189;BME280;50493;50.970;10.082;2023-09-12T03:22:03;98934.13;;;20.12;50.95
64189;BME280;50493;50.970;10.082;2023-09-12T03:24:28;98928.22;;;20.09;51.05
64189;BME280;50493;50.970;10.082;2023-09-12T03:26:55;98925.25;;;20.13;50.70
64189;BME280;50493;50.970;10.082;2023-09-12T03:29:21;98925.03;;;20.16;50.69
64189;BME280;50493;50.970;10.082;2023-09-12T03:31:46;98932.06;;;20.17;50.50
64189;BME280;50493;50.970;10.082;2023-09-12T03:34:11;98928.72;;;20.01;50.89
64189;BME280;50493;50.970;10.082;2023-09-12T03:36:37;98922.47;;;20.02;50.79
64189;BME280;50493;50.970;10.082;2023-09-12T03:39:03;98928.00;;;19.99;50.77
64189;BME280;50493;50.970;10.082;2023-09-12T03:41:30;98922.25;;;19.92;51.00
64189;BME280;50493;50.970;10.082;2023-09-12T03:43:57;98920.13;;;19.84;51.16
64189;BME280;50493;50.970;10.082;2023-09-12T03:46:22;98925.28;;;19.73;51.43
64189;BME280;50493;50.970;10.082;2023-09-12T03:48:48;98925.72;;;19.67;51.46
64189;BME280;50493;50.970;10.082;2023-09-12T03:51:14;98929.31;;;19.66;51.55
64189;BME280;50493;50.970;10.082;2023-09-12T03:53:39;98929.63;;;19.61;51.39
64189;BME280;50493;50.970;10.082;2023-09-12T03:56:04;98928.97;;;19.58;51.46
64189;BME280;50493;50.970;10.082;2023-09-12T03:58:30;98927.09;;;19.60;51.35
64189;BME280;50493;50.970;10.082;2023-09-12T04:00:57;98927.91;;;19.60;51.23
64189;BME280;50493;50.970;10.082;2023-09-12T04:03:22;98934.03;;;19.48;51.75
64189;BME280;50493;50.970;10.082;2023-09-12T04:05:49;98933.16;;;19.47;51.58
64189;BME280;50493;50.970;10.082;2023-09-12T04:08:15;98927.69;;;19.50;51.73
64189;BME280;50493;50.970;10.082;2023-09-12T04:10:40;98936.78;;;19.46;51.63
64189;BME280;50493;50.970;10.082;2023-09-12T04:13:06;98931.28;;;19.49;51.47
64189;BME280;50493;50.970;10.082;2023-09-12T04:15:31;98938.28;;;19.50;51.54
64189;BME280;50493;50.970;10.082;2023-09-12T04:17:58;98938.28;;;19.50;51.19
64189;BME280;50493;50.970;10.082;2023-09-12T04:20:23;98940.63;;;19.55;50.98
64189;BME280;50493;50.970;10.082;2023-09-12T04:22:48;98931.06;;;19.52;50.88
64189;BME280;50493;50.970;10.082;2023-09-12T04:25:14;98933.81;;;19.51;50.79
64189;BME280;50493;50.970;10.082;2023-09-12T04:27:41;98932.22;;;19.48;51.12
64189;BME280;50493;50.970;10.082;2023-09-12T04:30:07;98935.09;;;19.45;51.06
64189;BME280;50493;50.970;10.082;2023-09-12T04:32:33;98936.78;;;19.46;50.81
64189;BME280;50493;50.970;10.082;2023-09-12T04:35:00;98934.53;;;19.40;50.91
64189;BME280;50493;50.970;10.082;2023-09-12T04:37:25;98936.03;;;19.30;51.38
64189;BME280;50493;50.970;10.082;2023-09-12T04:39:50;98938.91;;;19.27;51.33
64189;BME280;50493;50.970;10.082;2023-09-12T04:42:16;98933.03;;;19.21;51.44
64189;BME280;50493;50.970;10.082;2023-09-12T04:44:42;98931.53;;;19.17;51.43
64189;BME280;50493;50.970;10.082;2023-09-12T04:47:07;98934.97;;;19.19;51.39
64189;BME280;50493;50.970;10.082;2023-09-12T04:49:33;98935.78;;;19.20;51.17
64189;BME280;50493;50.970;10.082;2023-09-12T04:52:00;98934.19;;;19.17;50.84
64189;BME280;50493;50.970;10.082;2023-09-12T04:54:25;98930.63;;;19.04;51.25
64189;BME280;50493;50.970;10.082;2023-09-12T04:56:51;98940.13;;;18.94;51.89
64189;BME280;50493;50.970;10.082;2023-09-12T04:59:16;98940.59;;;19.00;51.47
64189;BME280;50493;50.970;10.082;2023-09-12T05:01:41;98948.81;;;18.96;51.64
64189;BME280;50493;50.970;10.082;2023-09-12T05:04:07;98951.34;;;18.97;51.76
64189;BME280;50493;50.970;10.082;2023-09-12T05:06:34;98953.44;;;19.07;51.21
64189;BME280;50493;50.970;10.082;2023-09-12T05:09:00;98948.47;;;19.15;50.75
64189;BME280;50493;50.970;10.082;2023-09-12T05:11:26;98945.56;;;19.19;50.38
64189;BME280;50493;50.970;10.082;2023-09-12T05:13:52;98948.19;;;19.19;50.52
64189;BME280;50493;50.970;10.082;2023-09-12T05:16:17;98947.44;;;19.17;50.37
64189;BME280;50493;50.970;10.082;2023-09-12T05:18:43;98941.31;;;19.17;50.64
64189;BME280;50493;50.970;10.082;2023-09-12T05:21:08;98937.94;;;19.28;50.18
64189;BME280;50493;50.970;10.082;2023-09-12T05:23:34;98941.16;;;19.33;49.83
64189;BME280;50493;50.970;10.082;2023-09-12T05:26:01;98938.50;;;19.33;49.73
64189;BME280;50493;50.970;10.082;2023-09-12T05:28:26;98946.72;;;19.43;49.44
64189;BME280;50493;50.970;10.082;2023-09-12T05:30:52;98948.34;;;19.45;49.54
64189;BME280;50493;50.970;10.082;2023-09-12T05:33:17;98939.31;;;19.75;48.54
64189;BME280;50493;50.970;10.082;2023-09-12T05:35:43;98938.41;;;20.15;48.31
64189;BME280;50493;50.970;10.082;2023-09-12T05:38:09;98944.13;;;20.09;48.46
64189;BME280;50493;50.970;10.082;2023-09-12T05:40:35;98937.19;;;19.93;48.66
64189;BME280;50493;50.970;10.082;2023-09-12T05:43:01;98939.53;;;19.85;48.54
64189;BME280;50493;50.970;10.082;2023-09-12T05:45:28;98941.56;;;19.81;48.74
64189;BME280;50493;50.970;10.082;2023-09-12T05:47:54;98953.22;;;19.79;48.47
64189;BME280;50493;50.970;10.082;2023-09-12T05:50:20;98956.50;;;19.82;48.33
64189;BME280;50493;50.970;10.082;2023-09-12T05:52:45;98964.03;;;19.88;47.94
64189;BME280;50493;50.970;10.082;2023-09-12T05:55:11;98964.69;;;20.05;50.03
64189;BME280;50493;50.970;10.082;2023-09-12T05:57:36;98966.38;;;20.20;48.40
64189;BME280;50493;50.970;10.082;2023-09-12T06:00:04;98976.69;;;20.11;51.81
64189;BME280;50493;50.970;10.082;2023-09-12T06:02:30;98983.91;;;19.56;52.98
64189;BME280;50493;50.970;10.082;2023-09-12T06:04:58;98988.94;;;19.46;53.87
64189;BME280;50493;50.970;10.082;2023-09-12T06:07:23;98975.09;;;18.41;57.23
64189;BME280;50493;50.970;10.082;2023-09-12T06:09:49;98981.84;;;17.24;62.62
64189;BME280;50493;50.970;10.082;2023-09-12T06:12:14;98979.25;;;17.70;58.71
64189;BME280;50493;50.970;10.082;2023-09-12T06:14:40;98979.75;;;17.77;59.78
64189;BME280;50493;50.970;10.082;2023-09-12T06:17:06;98985.22;;;17.58;61.06
64189;BME280;50493;50.970;10.082;2023-09-12T06:19:32;98996.44;;;17.15;63.08
64189;BME280;50493;50.970;10.082;2023-09-12T06:21:57;98987.31;;;17.21;64.11
64189;BME280;50493;50.970;10.082;2023-09-12T06:24:23;98989.69;;;17.09;65.85
64189;BME280;50493;50.970;10.082;2023-09-12T06:26:49;98990.50;;;17.90;54.98
64189;BME280;50493;50.970;10.082;2023-09-12T06:29:15;98990.72;;;18.89;54.12
64189;BME280;50493;50.970;10.082;2023-09-12T06:31:41;99002.00;;;19.49;49.77
64189;BME280;50493;50.970;10.082;2023-09-12T06:34:08;99003.50;;;19.80;48.92
64189;BME280;50493;50.970;10.082;2023-09-12T06:36:33;98998.88;;;19.97;47.83
64189;BME280;50493;50.970;10.082;2023-09-12T06:39:00;98998.09;;;20.99;53.63
64189;BME280;50493;50.970;10.082;2023-09-12T06:41:26;98992.03;;;20.84;46.06
64189;BME280;50493;50.970;10.082;2023-09-12T06:43:51;98990.81;;;21.14;52.62
64189;BME280;50493;50.970;10.082;2023-09-12T06:46:17;98990.34;;;19.79;57.38
64189;BME280;50493;50.970;10.082;2023-09-12T06:48:43;98992.19;;;19.22;60.07
64189;BME280;50493;50.970;10.082;2023-09-12T06:51:10;98990.91;;;19.97;55.58
64189;BME280;50493;50.970;10.082;2023-09-12T06:53:36;98998.78;;;19.71;58.49
64189;BME280;50493;50.970;10.082;2023-09-12T06:56:04;98991.31;;;19.50;59.19
64189;BME280;50493;50.970;10.082;2023-09-12T06:58:30;98995.13;;;20.27;47.95
64189;BME280;50493;50.970;10.082;2023-09-12T07:00:55;98998.88;;;19.97;57.28
64189;BME280;50493;50.970;10.082;2023-09-12T07:03:21;98994.31;;;19.59;59.15
64189;BME280;50493;50.970;10.082;2023-09-12T07:05:46;98990.53;;;20.16;55.70
64189;BME280;50493;50.970;10.082;2023-09-12T07:08:13;98985.91;;;20.45;47.64
64189;BME280;50493;50.970;10.082;2023-09-12T07:10:43;98976.41;;;20.80;46.15
64189;BME280;50493;50.970;10.082;2023-09-12T07:13:10;98986.19;;;20.66;46.24
64189;BME280;50493;50.970;10.082;2023-09-12T07:15:35;98970.28;;;21.16;49.64
64189;BME280;50493;50.970;10.082;2023-09-12T07:18:01;98965.91;;;21.28;44.58
64189;BME280;50493;50.970;10.082;2023-09-12T07:20:26;98971.69;;;21.22;44.51
64189;BME280;50493;50.970;10.082;2023-09-12T07:22:51;98968.72;;;21.38;44.25
64189;BME280;50493;50.970;10.082;2023-09-12T07:25:18;98971.81;;;22.63;48.90
64189;BME280;50493;50.970;10.082;2023-09-12T07:27:46;98965.97;;;23.26;49.39
64189;BME280;50493;50.970;10.082;2023-09-12T07:30:11;98965.25;;;23.12;48.35
64189;BME280;50493;50.970;10.082;2023-09-12T07:32:37;98961.41;;;22.82;42.87
64189;BME280;50493;50.970;10.082;2023-09-12T07:35:02;98964.31;;;22.45;51.96
64189;BME280;50493;50.970;10.082;2023-09-12T07:37:28;98960.66;;;22.92;49.63
64189;BME280;50493;50.970;10.082;2023-09-12T07:39:53;98963.00;;;22.15;52.30
64189;BME280;50493;50.970;10.082;2023-09-12T07:42:22;98947.44;;;20.90;58.37
64189;BME280;50493;50.970;10.082;2023-09-12T07:44:48;98942.63;;;21.32;56.57
64189;BME280;50493;50.970;10.082;2023-09-12T07:47:13;98932.28;;;21.76;55.41
64189;BME280;50493;50.970;10.082;2023-09-12T07:49:39;98942.50;;;22.40;55.57
64189;BME280;50493;50.970;10.082;2023-09-12T07:52:05;98943.47;;;22.73;43.62
64189;BME280;50493;50.970;10.082;2023-09-12T07:54:31;98943.41;;;23.30;43.05
64189;BME280;50493;50.970;10.082;2023-09-12T07:56:56;98941.03;;;23.80;49.40
64189;BME280;50493;50.970;10.082;2023-09-12T07:59:23;98935.41;;;23.30;41.09
64189;BME280;50493;50.970;10.082;2023-09-12T08:01:48;98936.19;;;23.09;41.00
64189;BME280;50493;50.970;10.082;2023-09-12T08:04:14;98928.56;;;23.81;41.02
64189;BME280;50493;50.970;10.082;2023-09-12T08:06:40;98916.44;;;24.19;50.27
64189;BME280;50493;50.970;10.082;2023-09-12T08:09:06;98922.50;;;24.00;48.03
64189;BME280;50493;50.970;10.082;2023-09-12T08:11:31;98931.63;;;24.18;40.28
64189;BME280;50493;50.970;10.082;2023-09-12T08:13:57;98933.81;;;23.71;40.57
64189;BME280;50493;50.970;10.082;2023-09-12T08:16:24;98925.28;;;24.19;49.91
64189;BME280;50493;50.970;10.082;2023-09-12T08:18:49;98919.78;;;24.73;45.35
64189;BME280;50493;50.970;10.082;2023-09-12T08:21:14;98915.00;;;24.15;40.41
64189;BME280;50493;50.970;10.082;2023-09-12T08:23:40;98911.97;;;23.77;40.42
64189;BME280;50493;50.970;10.082;2023-09-12T08:26:05;98915.56;;;23.11;42.26
64189;BME280;50493;50.970;10.082;2023-09-12T08:28:30;98919.84;;;22.57;43.57
64189;BME280;50493;50.970;10.082;2023-09-12T08:30:56;98920.72;;;22.69;43.61
64189;BME280;50493;50.970;10.082;2023-09-12T08:33:22;98932.34;;;22.79;42.92
64189;BME280;50493;50.970;10.082;2023-09-12T08:35:49;98945.34;;;22.14;44.78
64189;BME280;50493;50.970;10.082;2023-09-12T08:38:14;98952.19;;;21.94;45.30
64189;BME280;50493;50.970;10.082;2023-09-12T08:40:40;98955.72;;;21.70;45.71
64189;BME280;50493;50.970;10.082;2023-09-12T08:43:06;98967.28;;;21.82;45.76
64189;BME280;50493;50.970;10.082;2023-09-12T08:45:32;98965.63;;;22.51;44.81
64189;BME280;50493;50.970;10.082;2023-09-12T08:47:59;98962.78;;;22.30;44.63
64189;BME280;50493;50.970;10.082;2023-09-12T08:50:29;98960.53;;;22.48;44.59
64189;BME280;50493;50.970;10.082;2023-09-12T08:52:58;98960.59;;;23.69;48.45
64189;BME280;50493;50.970;10.082;2023-09-12T08:55:23;98956.63;;;24.17;50.95
64189;BME280;50493;50.970;10.082;2023-09-12T08:57:50;98959.53;;;24.35;45.91
64189;BME280;50493;50.970;10.082;2023-09-12T09:00:16;98962.63;;;24.31;49.69
64189;BME280;50493;50.970;10.082;2023-09-12T09:02:43;98953.13;;;24.38;44.98
64189;BME280;50493;50.970;10.082;2023-09-12T09:05:10;98955.91;;;23.62;52.32
64189;BME280;50493;50.970;10.082;2023-09-12T09:07:38;98950.59;;;23.62;43.04
64189;BME280;50493;50.970;10.082;2023-09-12T09:10:05;98960.22;;;24.06;51.77
64189;BME280;50493;50.970;10.082;2023-09-12T09:12:31;98961.66;;;23.46;52.22
64189;BME280;50493;50.970;10.082;2023-09-12T09:14:56;98960.31;;;23.84;51.26
64189;BME280;50493;50.970;10.082;2023-09-12T09:17:23;98957.34;;;23.98;52.42
64189;BME280;50493;50.970;10.082;2023-09-12T09:19:48;98964.28;;;24.84;49.49
64189;BME280;50493;50.970;10.082;2023-09-12T09:22:13;98963.88;;;24.88;46.68
64189;BME280;50493;50.970;10.082;2023-09-12T09:24:40;98965.22;;;24.42;49.87
64189;BME280;50493;50.970;10.082;2023-09-12T09:27:05;98971.13;;;24.25;51.19
64189;BME280;50493;50.970;10.082;2023-09-12T09:29:31;98957.91;;;24.75;43.60
64189;BME280;50493;50.970;10.082;2023-09-12T09:31:59;98954.78;;;25.01;49.29
64189;BME280;50493;50.970;10.082;2023-09-12T09:34:25;98953.94;;;25.00;45.07
64189;BME280;50493;50.970;10.082;2023-09-12T09:36:53;98951.06;;;24.82;40.63
64189;BME280;50493;50.970;10.082;2023-09-12T09:39:21;98951.59;;;24.76;40.78
64189;BME280;50493;50.970;10.082;2023-09-12T09:41:48;98949.78;;;24.77;49.50
64189;BME280;50493;50.970;10.082;2023-09-12T09:44:14;98947.28;;;24.54;48.69
64189;BME280;50493;50.970;10.082;2023-09-12T09:46:42;98942.28;;;25.11;43.62
64189;BME280;50493;50.970;10.082;2023-09-12T09:49:10;98938.78;;;25.11;40.38
64189;BME280;50493;50.970;10.082;2023-09-12T09:51:40;98946.09;;;25.18;40.63
64189;BME280;50493;50.970;10.082;2023-09-12T09:54:07;98942.06;;;25.34;40.49
64189;BME280;50493;50.970;10.082;2023-09-12T09:56:44;98941.13;;;25.74;46.56
64189;BME280;50493;50.970;10.082;2023-09-12T09:59:13;98941.34;;;25.32;40.25
64189;BME280;50493;50.970;10.082;2023-09-12T10:01:40;98952.94;;;25.71;39.33
64189;BME280;50493;50.970;10.082;2023-09-12T10:04:07;98946.44;;;25.64;39.32
64189;BME280;50493;50.970;10.082;2023-09-12T10:06:35;98950.34;;;26.29;40.75
64189;BME280;50493;50.970;10.082;2023-09-12T10:09:04;98945.97;;;26.28;39.81
64189;BME280;50493;50.970;10.082;2023-09-12T10:11:31;98953.50;;;25.65;39.89
64189;BME280;50493;50.970;10.082;2023-09-12T10:14:03;98949.97;;;25.84;46.02
64189;BME280;50493;50.970;10.082;2023-09-12T10:16:32;98947.28;;;25.84;39.69
64189;BME280;50493;50.970;10.082;2023-09-12T10:18:59;98943.25;;;26.47;39.15
64189;BME280;50493;50.970;10.082;2023-09-12T10:21:30;98938.25;;;26.62;38.66
64189;BME280;50493;50.970;10.082;2023-09-12T10:23:59;98937.63;;;26.40;44.25
64189;BME280;50493;50.970;10.082;2023-09-12T10:26:26;98931.53;;;25.81;40.97
64189;BME280;50493;50.970;10.082;2023-09-12T10:28:52;98940.78;;;26.64;45.55
64189;BME280;50493;50.970;10.082;2023-09-12T10:31:17;98934.91;;;26.78;39.67
64189;BME280;50493;50.970;10.082;2023-09-12T10:33:46;98931.66;;;27.12;44.95
64189;BME280;50493;50.970;10.082;2023-09-12T10:36:13;98925.69;;;26.63;39.41
64189;BME280;50493;50.970;10.082;2023-09-12T10:38:42;98924.38;;;27.22;40.66
64189;BME280;50493;50.970;10.082;2023-09-12T10:41:08;98928.06;;;26.66;45.62
64189;BME280;50493;50.970;10.082;2023-09-12T10:43:36;98922.31;;;27.16;43.01
64189;BME280;50493;50.970;10.082;2023-09-12T10:46:02;98929.47;;;27.62;39.70
64189;BME280;50493;50.970;10.082;2023-09-12T10:48:29;98927.19;;;27.93;43.21
64189;BME280;50493;50.970;10.082;2023-09-12T10:50:57;98924.81;;;27.64;44.56
64189;BME280;50493;50.970;10.082;2023-09-12T10:53:26;98925.09;;;27.61;44.37
64189;BME280;50493;50.970;10.082;2023-09-12T10:55:58;98923.13;;;27.63;40.22
64189;BME280;50493;50.970;10.082;2023-09-12T10:58:25;98920.50;;;27.97;44.69
64189;BME280;50493;50.970;10.082;2023-09-12T11:01:23;98920.28;;;28.35;41.82
64189;BME280;50493;50.970;10.082;2023-09-12T11:03:50;98915.75;;;28.09;42.28
64189;BME280;50493;50.970;10.082;2023-09-12T11:06:30;98902.09;;;27.76;39.53
64189;BME280;50493;50.970;10.082;2023-09-12T11:09:17;98912.00;;;27.57;41.45
64189;BME280;50493;50.970;10.082;2023-09-12T11:11:46;98910.41;;;27.91;39.95
64189;BME280;50493;50.970;10.082;2023-09-12T11:14:12;98914.63;;;27.94;41.95
64189;BME280;50493;50.970;10.082;2023-09-12T11:16:37;98913.47;;;27.96;42.33
64189;BME280;50493;50.970;10.082;2023-09-12T11:19:14;98907.22;;;28.40;39.15
64189;BME280;50493;50.970;10.082;2023-09-12T11:21:42;98914.34;;;27.43;42.54
64189;BME280;50493;50.970;10.082;2023-09-12T11:24:08;98908.34;;;27.31;42.61
64189;BME280;50493;50.970;10.082;2023-09-12T11:26:34;98910.97;;;27.95;40.04
64189;BME280;50493;50.970;10.082;2023-09-12T11:29:10;98911.50;;;27.08;44.44
64189;BME280;50493;50.970;10.082;2023-09-12T11:31:36;98910.13;;;27.40;43.75
64189;BME280;50493;50.970;10.082;2023-09-12T11:34:08;98906.66;;;26.56;43.19
64189;BME280;50493;50.970;10.082;2023-09-12T11:36:38;98898.00;;;26.72;43.80
64189;BME280;50493;50.970;10.082;2023-09-12T11:39:22;98902.63;;;27.62;44.47
64189;BME280;50493;50.970;10.082;2023-09-12T11:41:48;98899.19;;;27.69;42.22
64189;BME280;50493;50.970;10.082;2023-09-12T11:44:14;98895.34;;;28.51;40.84
64189;BME280;50493;50.970;10.082;2023-09-12T11:46:41;98894.59;;;28.40;41.10
64189;BME280;50493;50.970;10.082;2023-09-12T11:49:07;98885.09;;;28.46;42.35
64189;BME280;50493;50.970;10.082;2023-09-12T11:51:32;98882.50;;;28.63;40.51
64189;BME280;50493;50.970;10.082;2023-09-12T11:53:58;98878.50;;;28.83;41.49
64189;BME280;50493;50.970;10.082;2023-09-12T11:56:26;98884.22;;;28.80;40.50
64189;BME280;50493;50.970;10.082;2023-09-12T11:58:53;98871.34;;;27.70;43.02
64189;BME280;50493;50.970;10.082;2023-09-12T12:01:20;98876.97;;;28.38;41.35
64189;BME280;50493;50.970;10.082;2023-09-12T12:03:46;98871.84;;;29.12;39.72
64189;BME280;50493;50.970;10.082;2023-09-12T12:06:17;98871.75;;;29.38;40.02
64189;BME280;50493;50.970;10.082;2023-09-12T12:08:43;98871.91;;;29.62;39.01
64189;BME280;50493;50.970;10.082;2023-09-12T12:11:09;98870.06;;;29.70;37.58
64189;BME280;50493;50.970;10.082;2023-09-12T12:13:35;98866.19;;;29.65;38.93
64189;BME280;50493;50.970;10.082;2023-09-12T12:16:14;98868.03;;;29.89;39.09
64189;BME280;50493;50.970;10.082;2023-09-12T12:18:39;98866.44;;;28.96;39.11
64189;BME280;50493;50.970;10.082;2023-09-12T12:21:05;98867.19;;;29.55;39.15
64189;BME280;50493;50.970;10.082;2023-09-12T12:23:30;98860.47;;;29.51;39.67
64189;BME280;50493;50.970;10.082;2023-09-12T12:25:55;98864.00;;;29.68;38.48
64189;BME280;50493;50.970;10.082;2023-09-12T12:28:21;98859.44;;;29.94;38.83
64189;BME280;50493;50.970;10.082;2023-09-12T12:30:50;98862.53;;;30.38;39.31
64189;BME280;50493;50.970;10.082;2023-09-12T12:33:17;98854.16;;;30.65;38.09
64189;BME280;50493;50.970;10.082;2023-09-12T12:35:43;98848.81;;;30.88;36.53
64189;BME280;50493;50.970;10.082;2023-09-12T12:38:11;98848.31;;;29.97;37.28
64189;BME280;50493;50.970;10.082;2023-09-12T12:40:37;98843.88;;;30.12;39.54
64189;BME280;50493;50.970;10.082;2023-09-12T12:43:03;98844.47;;;29.66;37.99
64189;BME280;50493;50.970;10.082;2023-09-12T12:45:28;98838.94;;;29.35;39.81
64189;BME280;50493;50.970;10.082;2023-09-12T12:47:57;98840.06;;;28.56;40.84